Terminal Aerodrome Forecast
Issued by NWS

Home | Current Version | Previous Version | Text Only | Print | Product List | Glossary On
Versions: 1 2 3 4 5 6 7 8 9 10 11 12 13 14 15 16 17 18 19 20 21 22 23 24 25 26 27 28
000
FTUS41 KCTP 290602 RRA
TAFJST
TAF
KJST 290602Z 2906/3006 VRB03KT 2SM BR OVC002
     FM291200 VRB03KT 4SM BR BKN010
     FM291500 34005KT P6SM SCT050
     FM300000 03004KT P6SM SKC=

USA.gov is the U.S. government's official web portal to all federal, state and local government web resources and services.